createdAt,value
2023-02-14T00:00:43.138Z,11.57
2023-02-14T00:03:09.607Z,11.30
2023-02-14T00:05:36.139Z,10.63
2023-02-14T00:08:02.558Z,11.57
2023-02-14T00:10:29.050Z,10.50
2023-02-14T00:12:55.492Z,9.27
2023-02-14T00:15:25.887Z,9.03
2023-02-14T00:17:55.442Z,9.23
2023-02-14T00:20:23.167Z,9.17
2023-02-14T00:22:50.359Z,9.27
2023-02-14T00:25:18.137Z,8.87
2023-02-14T00:27:45.033Z,7.50
2023-02-14T00:30:13.638Z,7.90
2023-02-14T00:32:41.573Z,7.27
2023-02-14T00:35:09.346Z,8.00
2023-02-14T00:37:36.049Z,7.70
2023-02-14T00:40:02.827Z,8.13
2023-02-14T00:42:29.272Z,8.27
2023-02-14T00:44:55.761Z,8.03
2023-02-14T00:47:22.283Z,8.70
2023-02-14T00:49:48.789Z,8.13
2023-02-14T00:52:15.430Z,8.17
2023-02-14T00:54:42.112Z,8.93
2023-02-14T00:57:08.596Z,9.03
2023-02-14T00:59:36.304Z,8.40
2023-02-14T01:02:04.015Z,8.17
2023-02-14T01:04:30.506Z,9.03
2023-02-14T01:06:57.014Z,8.90
2023-02-14T01:09:23.426Z,7.37
2023-02-14T01:11:50.118Z,7.63
2023-02-14T01:14:16.534Z,7.30
2023-02-14T01:16:42.989Z,7.43
2023-02-14T01:19:09.496Z,7.00
2023-02-14T01:21:36.036Z,6.90
2023-02-14T01:24:06.158Z,6.67
2023-02-14T01:26:34.188Z,6.10
2023-02-14T01:29:01.715Z,6.60
2023-02-14T01:31:31.553Z,6.03
2023-02-14T01:33:59.422Z,6.00
2023-02-14T01:36:36.491Z,6.00
2023-02-14T01:39:11.508Z,5.67
2023-02-14T01:41:39.745Z,4.97
2023-02-14T01:44:26.401Z,5.00
2023-02-14T01:46:52.975Z,4.70
2023-02-14T01:49:47.473Z,4.60
2023-02-14T01:52:37.648Z,5.50
2023-02-14T01:55:13.008Z,5.40
2023-02-14T01:57:54.046Z,5.17
2023-02-14T02:00:40.577Z,6.30
2023-02-14T02:03:08.192Z,7.60
2023-02-14T02:05:40.084Z,7.17
2023-02-14T02:08:06.716Z,7.57
2023-02-14T02:10:33.146Z,7.83
2023-02-14T02:13:05.950Z,7.43
2023-02-14T02:15:42.370Z,7.63
2023-02-14T02:18:29.949Z,7.03
2023-02-14T02:21:15.199Z,8.00
2023-02-14T02:23:59.030Z,7.43
2023-02-14T02:26:57.110Z,7.73
2023-02-14T02:29:56.626Z,7.37
2023-02-14T02:33:01.756Z,7.30
2023-02-14T02:35:50.044Z,7.33
2023-02-14T02:38:55.333Z,8.00
2023-02-14T02:41:53.052Z,7.87
2023-02-14T02:44:35.862Z,8.00
2023-02-14T02:47:31.152Z,8.27
2023-02-14T02:50:32.858Z,8.30
2023-02-14T02:53:05.440Z,8.57
2023-02-14T02:55:53.026Z,7.70
2023-02-14T02:58:22.479Z,8.33
2023-02-14T03:00:53.057Z,8.23
2023-02-14T03:03:43.312Z,8.10
2023-02-14T03:06:09.875Z,8.47
2023-02-14T03:08:36.290Z,8.27
2023-02-14T03:11:04.872Z,7.93
2023-02-14T03:14:03.140Z,8.57
2023-02-14T03:16:41.655Z,8.93
2023-02-14T03:19:55.323Z,9.20
2023-02-14T03:22:35.084Z,8.77
2023-02-14T03:25:16.534Z,7.50
2023-02-14T03:28:18.860Z,7.67
2023-02-14T03:31:02.546Z,8.70
2023-02-14T03:33:41.140Z,8.00
2023-02-14T03:36:31.604Z,8.27
2023-02-14T03:39:15.982Z,8.13
2023-02-14T03:42:06.292Z,7.53
2023-02-14T03:44:35.312Z,8.13
2023-02-14T03:47:07.448Z,8.17
2023-02-14T03:49:39.792Z,9.43
2023-02-14T03:52:09.676Z,8.80
2023-02-14T03:54:36.610Z,8.40
2023-02-14T03:57:22.182Z,8.70
2023-02-14T03:59:48.996Z,8.73
2023-02-14T04:02:23.349Z,8.50
2023-02-14T04:04:51.610Z,8.93
2023-02-14T04:07:21.020Z,8.70
2023-02-14T04:09:48.290Z,8.93
2023-02-14T04:12:16.950Z,8.57
2023-02-14T04:14:44.794Z,7.43
2023-02-14T04:17:30.133Z,7.67
2023-02-14T04:19:56.656Z,7.73
2023-02-14T04:22:23.191Z,8.57
2023-02-14T04:24:49.679Z,9.03
2023-02-14T04:27:16.162Z,8.40
2023-02-14T04:29:44.219Z,8.27
2023-02-14T04:32:17.477Z,7.50
2023-02-14T04:34:44.552Z,8.80
2023-02-14T04:37:11.762Z,9.60
2023-02-14T04:39:39.347Z,10.70
2023-02-14T04:42:06.512Z,10.37
2023-02-14T04:44:34.089Z,10.20
2023-02-14T04:47:01.591Z,9.60
2023-02-14T04:49:28.025Z,9.60
2023-02-14T04:51:54.628Z,10.00
2023-02-14T04:54:22.009Z,9.37
2023-02-14T04:56:48.994Z,9.77
2023-02-14T04:59:15.578Z,10.27
2023-02-14T05:01:42.336Z,10.77
2023-02-14T05:04:08.926Z,10.60
2023-02-14T05:06:35.444Z,10.70
2023-02-14T05:09:02.363Z,10.53
2023-02-14T05:11:29.428Z,11.00
2023-02-14T05:13:56.202Z,10.37
2023-02-14T05:16:23.105Z,11.57
2023-02-14T05:18:49.712Z,11.70
2023-02-14T05:21:16.264Z,11.77
2023-02-14T05:23:42.680Z,11.80
2023-02-14T05:26:09.217Z,11.20
2023-02-14T05:28:36.136Z,11.73
2023-02-14T05:31:03.152Z,11.83
2023-02-14T05:33:29.928Z,11.67
2023-02-14T05:35:59.891Z,11.53
2023-02-14T05:38:26.485Z,11.93
2023-02-14T05:40:52.954Z,11.83
2023-02-14T05:43:19.456Z,13.43
2023-02-14T05:45:45.966Z,13.87
2023-02-14T05:48:13.264Z,14.73
2023-02-14T05:50:39.701Z,15.00
2023-02-14T05:53:06.834Z,15.10
2023-02-14T05:55:33.350Z,15.20
2023-02-14T05:57:59.779Z,10.20
2023-02-14T06:00:26.455Z,13.57
2023-02-14T06:02:52.982Z,14.10
2023-02-14T06:05:20.156Z,17.97
2023-02-14T06:07:50.531Z,15.60
2023-02-14T06:10:22.086Z,14.03
2023-02-14T06:12:49.747Z,13.93
2023-02-14T06:15:16.414Z,14.10
2023-02-14T06:17:43.449Z,12.73
2023-02-14T06:20:11.435Z,11.87
2023-02-14T06:22:39.100Z,12.10
2023-02-14T06:25:06.537Z,14.07
2023-02-14T06:27:33.360Z,12.83
2023-02-14T06:29:59.972Z,13.47
2023-02-14T06:32:26.670Z,13.07
2023-02-14T06:34:53.116Z,13.43
2023-02-14T06:37:20.097Z,13.53
2023-02-14T06:39:46.673Z,14.07
2023-02-14T06:42:13.153Z,14.43
2023-02-14T06:44:39.637Z,14.23
2023-02-14T06:47:07.961Z,13.33
2023-02-14T06:49:34.656Z,14.27
2023-02-14T06:52:01.130Z,14.40
2023-02-14T06:54:28.654Z,15.03
2023-02-14T06:56:55.132Z,14.07
2023-02-14T06:59:21.727Z,14.90
2023-02-14T07:01:48.336Z,15.17
2023-02-14T07:04:15.003Z,15.07
2023-02-14T07:06:41.589Z,15.73
2023-02-14T07:09:08.491Z,16.47
2023-02-14T07:11:34.965Z,15.20
2023-02-14T07:14:01.446Z,15.33
2023-02-14T07:16:27.963Z,15.30
2023-02-14T07:18:54.369Z,15.90
2023-02-14T07:21:20.854Z,15.73
2023-02-14T07:23:49.898Z,15.50
2023-02-14T07:26:18.098Z,16.40
2023-02-14T07:28:45.859Z,14.93
2023-02-14T07:31:12.700Z,14.77
2023-02-14T07:33:39.560Z,15.07
2023-02-14T07:36:07.884Z,14.43
2023-02-14T07:38:35.607Z,14.03
2023-02-14T07:41:02.549Z,15.13
2023-02-14T07:43:29.221Z,13.97
2023-02-14T07:45:55.778Z,13.83
2023-02-14T07:48:22.408Z,14.47
2023-02-14T07:50:48.908Z,14.33
2023-02-14T07:53:15.359Z,14.07
2023-02-14T07:55:41.807Z,13.93
2023-02-14T07:58:09.472Z,13.20
2023-02-14T08:00:35.924Z,14.03
2023-02-14T08:03:02.384Z,13.73
2023-02-14T08:05:29.672Z,13.73
2023-02-14T08:07:56.116Z,13.63
2023-02-14T08:10:22.872Z,16.43
2023-02-14T08:13:01.741Z,14.67
2023-02-14T08:15:51.486Z,13.63
2023-02-14T08:18:19.958Z,13.63
2023-02-14T08:20:49.633Z,14.00
2023-02-14T08:23:18.564Z,13.13
2023-02-14T08:25:45.423Z,13.20
2023-02-14T08:28:13.675Z,13.50
2023-02-14T08:30:40.980Z,13.20
2023-02-14T08:33:08.588Z,12.50
2023-02-14T08:35:36.027Z,13.67
2023-02-14T08:38:02.480Z,13.47
2023-02-14T08:40:29.030Z,13.60
2023-02-14T08:42:55.530Z,13.27
2023-02-14T08:45:22.095Z,12.83
2023-02-14T08:47:48.784Z,13.97
2023-02-14T08:50:17.456Z,14.30
2023-02-14T08:52:44.472Z,14.90
2023-02-14T08:55:11.664Z,15.40
2023-02-14T08:57:38.401Z,15.37
2023-02-14T09:00:07.665Z,15.83
2023-02-14T09:02:34.441Z,14.67
2023-02-14T09:05:01.104Z,14.57
2023-02-14T09:07:27.669Z,16.80
2023-02-14T09:09:54.144Z,16.50
2023-02-14T09:12:20.591Z,16.10
2023-02-14T09:14:47.674Z,16.70
2023-02-14T09:17:15.278Z,15.77
2023-02-14T09:19:42.332Z,15.20
2023-02-14T09:22:10.391Z,13.77
2023-02-14T09:24:38.646Z,13.80
2023-02-14T09:27:05.746Z,14.13
2023-02-14T09:29:34.255Z,13.93
2023-02-14T09:32:01.951Z,16.37
2023-02-14T09:34:48.611Z,15.00
2023-02-14T09:37:33.984Z,15.47
2023-02-14T09:40:00.836Z,15.23
2023-02-14T09:42:27.250Z,14.30
2023-02-14T09:45:07.109Z,12.90
2023-02-14T09:47:40.447Z,13.43
2023-02-14T09:50:19.130Z,12.57
2023-02-14T09:52:49.751Z,12.13
2023-02-14T09:55:18.005Z,12.17
2023-02-14T09:58:13.308Z,13.23
2023-02-14T10:00:48.721Z,12.70
2023-02-14T10:03:48.026Z,12.33
2023-02-14T10:06:38.849Z,12.03
2023-02-14T10:09:28.646Z,12.13
2023-02-14T10:11:57.954Z,11.67
2023-02-14T10:14:29.957Z,12.30
2023-02-14T10:17:15.082Z,12.27
2023-02-14T10:19:48.347Z,11.77
2023-02-14T10:22:18.259Z,12.10
2023-02-14T10:24:47.643Z,12.10
2023-02-14T10:27:42.521Z,11.93
2023-02-14T10:30:18.172Z,12.37
2023-02-14T10:33:11.099Z,12.47
2023-02-14T10:35:51.190Z,12.37
2023-02-14T10:38:46.461Z,12.23
2023-02-14T10:41:35.749Z,11.07
2023-02-14T10:44:20.540Z,12.73
2023-02-14T10:47:04.488Z,10.40
2023-02-14T10:49:53.428Z,12.30
2023-02-14T10:52:29.431Z,11.93
2023-02-14T10:55:00.031Z,11.90
2023-02-14T10:57:36.614Z,11.70
2023-02-14T11:00:07.188Z,12.20
2023-02-14T11:02:40.074Z,11.33
2023-02-14T11:05:17.751Z,11.70
2023-02-14T11:07:44.658Z,12.90
2023-02-14T11:10:14.691Z,11.50
2023-02-14T11:12:41.833Z,11.63
2023-02-14T11:15:17.281Z,11.67
2023-02-14T11:17:43.838Z,12.03
2023-02-14T11:20:30.312Z,12.57
2023-02-14T11:22:57.546Z,11.60
2023-02-14T11:25:29.745Z,12.33
2023-02-14T11:28:05.940Z,12.30
2023-02-14T11:30:40.864Z,12.67
2023-02-14T11:33:13.278Z,12.20
2023-02-14T11:35:40.035Z,12.83
2023-02-14T11:38:24.898Z,11.50
2023-02-14T11:40:55.938Z,12.07
2023-02-14T11:43:38.118Z,12.70
2023-02-14T11:46:14.901Z,12.47
2023-02-14T11:48:59.633Z,13.20
2023-02-14T11:51:29.826Z,12.87
2023-02-14T11:54:01.601Z,12.77
2023-02-14T11:56:54.369Z,13.33
2023-02-14T11:59:44.095Z,14.00
2023-02-14T12:02:32.706Z,14.10
2023-02-14T12:05:04.874Z,14.10
2023-02-14T12:07:37.735Z,13.60
2023-02-14T12:10:15.585Z,13.93
2023-02-14T12:12:50.153Z,13.97
2023-02-14T12:15:25.690Z,13.60
2023-02-14T12:18:00.579Z,15.13
2023-02-14T12:20:38.021Z,14.40
2023-02-14T12:23:17.560Z,14.00
2023-02-14T12:25:52.738Z,13.93
2023-02-14T12:28:25.935Z,14.23
2023-02-14T12:30:52.491Z,13.57
2023-02-14T12:33:21.745Z,14.30
2023-02-14T12:36:24.308Z,13.97
2023-02-14T12:39:08.493Z,14.43
2023-02-14T12:42:00.567Z,15.27
2023-02-14T12:44:57.662Z,14.63
2023-02-14T12:47:39.091Z,14.87
2023-02-14T12:50:21.529Z,14.40
2023-02-14T12:53:06.106Z,15.10
2023-02-14T12:55:42.110Z,14.30
2023-02-14T12:58:44.114Z,14.50
2023-02-14T13:01:24.763Z,15.17
2023-02-14T13:04:47.447Z,15.50
2023-02-14T13:07:29.834Z,14.43
2023-02-14T13:10:25.071Z,14.77
2023-02-14T13:13:14.338Z,15.00
2023-02-14T13:15:45.012Z,15.07
2023-02-14T13:18:36.566Z,15.43
2023-02-14T13:21:06.351Z,14.80
2023-02-14T13:23:41.154Z,16.70
2023-02-14T13:26:14.705Z,15.90
2023-02-14T13:29:10.765Z,16.23
2023-02-14T13:31:38.688Z,14.93
2023-02-14T13:34:13.714Z,15.23
2023-02-14T13:36:40.989Z,16.40
2023-02-14T13:39:13.918Z,15.70
2023-02-14T13:41:41.788Z,16.53
2023-02-14T13:44:08.385Z,16.03
2023-02-14T13:46:35.228Z,16.23
2023-02-14T13:49:23.471Z,16.23
2023-02-14T13:51:57.178Z,17.47
2023-02-14T13:54:47.530Z,17.87
2023-02-14T13:57:36.434Z,16.50
2023-02-14T14:00:19.335Z,17.33
2023-02-14T14:02:56.598Z,18.33
2023-02-14T14:05:50.007Z,18.20
2023-02-14T14:08:29.866Z,19.20
2023-02-14T14:10:59.802Z,18.43
2023-02-14T14:13:41.873Z,18.47
2023-02-14T14:16:23.599Z,18.00
2023-02-14T14:19:16.362Z,19.23
2023-02-14T14:21:45.524Z,18.97
2023-02-14T14:24:22.955Z,17.80
2023-02-14T14:27:06.485Z,19.07
2023-02-14T14:29:59.626Z,20.57
2023-02-14T14:32:29.983Z,19.40
2023-02-14T14:35:21.660Z,19.93
2023-02-14T14:38:01.048Z,18.53
2023-02-14T14:40:34.913Z,19.07
2023-02-14T14:43:10.266Z,19.67
2023-02-14T14:45:40.955Z,18.90
2023-02-14T14:48:14.021Z,19.37
2023-02-14T14:50:45.700Z,19.90
2023-02-14T14:53:23.523Z,20.43
2023-02-14T14:55:54.446Z,20.10
2023-02-14T14:58:39.589Z,21.63
2023-02-14T15:01:21.381Z,21.20
2023-02-14T15:03:48.915Z,22.33
2023-02-14T15:06:22.737Z,22.10
2023-02-14T15:08:49.962Z,19.57
2023-02-14T15:11:41.916Z,22.00
2023-02-14T15:14:15.767Z,20.27
2023-02-14T15:17:14.033Z,20.73
2023-02-14T15:19:44.747Z,21.00
2023-02-14T15:22:25.924Z,20.30
2023-02-14T15:24:57.908Z,21.53
2023-02-14T15:27:26.614Z,20.87
2023-02-14T15:30:10.046Z,20.47
2023-02-14T15:32:40.291Z,20.87
2023-02-14T15:35:14.688Z,21.50
2023-02-14T15:37:45.335Z,21.13
2023-02-14T15:40:23.106Z,22.27
2023-02-14T15:42:57.417Z,21.30
2023-02-14T15:45:28.793Z,21.63
2023-02-14T15:47:59.208Z,21.03
2023-02-14T15:50:33.067Z,21.60
2023-02-14T15:53:17.273Z,21.70
2023-02-14T15:55:44.599Z,22.47
2023-02-14T15:58:23.157Z,23.00
2023-02-14T16:00:53.382Z,22.57
2023-02-14T16:03:26.871Z,21.37
2023-02-14T16:05:55.044Z,22.63
2023-02-14T16:08:31.641Z,20.50
2023-02-14T16:11:30.065Z,19.87
2023-02-14T16:13:56.928Z,21.90
2023-02-14T16:16:23.896Z,21.23
2023-02-14T16:18:56.601Z,20.53
2023-02-14T16:21:27.575Z,21.27
2023-02-14T16:24:11.286Z,20.07
2023-02-14T16:26:39.544Z,22.07
2023-02-14T16:29:08.358Z,22.00
2023-02-14T16:31:38.516Z,22.83
2023-02-14T16:34:05.568Z,21.37
2023-02-14T16:36:34.495Z,22.70
2023-02-14T16:39:05.960Z,22.33
2023-02-14T16:41:34.607Z,22.37
2023-02-14T16:44:01.520Z,21.90
2023-02-14T16:46:31.555Z,21.77
2023-02-14T16:48:59.562Z,21.70
2023-02-14T16:51:29.890Z,22.80
2023-02-14T16:54:00.592Z,21.33
2023-02-14T16:56:36.791Z,22.23
2023-02-14T16:59:03.686Z,21.80
2023-02-14T17:01:30.357Z,21.07
2023-02-14T17:03:58.694Z,22.20
2023-02-14T17:06:28.637Z,21.13
2023-02-14T17:08:58.526Z,21.07
2023-02-14T17:11:27.478Z,20.43
2023-02-14T17:13:55.078Z,21.00
2023-02-14T17:16:22.630Z,22.23
2023-02-14T17:18:52.153Z,22.03
2023-02-14T17:21:23.516Z,21.13
2023-02-14T17:23:50.781Z,21.47
2023-02-14T17:26:19.036Z,19.70
2023-02-14T17:28:47.575Z,20.87
2023-02-14T17:31:17.038Z,19.80
2023-02-14T17:33:54.521Z,19.50
2023-02-14T17:36:32.188Z,19.70
2023-02-14T17:39:09.309Z,20.23
2023-02-14T17:41:36.571Z,20.90
2023-02-14T17:44:05.181Z,22.50
2023-02-14T17:46:32.680Z,21.27
2023-02-14T17:49:03.220Z,22.97
2023-02-14T17:51:30.888Z,21.83
2023-02-14T17:53:59.034Z,27.00
2023-02-14T17:56:26.213Z,28.50
2023-02-14T17:58:55.285Z,25.53
2023-02-14T18:01:24.629Z,23.37
2023-02-14T18:03:53.028Z,21.20
2023-02-14T18:06:19.820Z,21.90
2023-02-14T18:08:53.588Z,21.63
2023-02-14T18:11:21.643Z,22.87
2023-02-14T18:13:48.645Z,22.47
2023-02-14T18:16:18.460Z,22.07
2023-02-14T18:18:45.898Z,21.03
2023-02-14T18:21:25.725Z,22.43
2023-02-14T18:24:06.668Z,21.67
2023-02-14T18:26:34.732Z,22.23
2023-02-14T18:29:06.802Z,22.73
2023-02-14T18:31:35.622Z,21.47
2023-02-14T18:34:05.640Z,21.70
2023-02-14T18:36:36.179Z,23.00
2023-02-14T18:39:04.213Z,21.00
2023-02-14T18:41:31.961Z,22.17
2023-02-14T18:43:59.110Z,22.47
2023-02-14T18:46:30.684Z,22.13
2023-02-14T18:48:57.914Z,20.87
2023-02-14T18:51:27.603Z,20.07
2023-02-14T18:53:59.981Z,20.10
2023-02-14T18:56:30.651Z,19.57
2023-02-14T18:59:04.859Z,19.47
2023-02-14T19:01:36.938Z,19.40
2023-02-14T19:04:09.326Z,21.30
2023-02-14T19:06:40.968Z,19.70
2023-02-14T19:09:13.557Z,18.53
2023-02-14T19:11:42.104Z,19.20
2023-02-14T19:14:13.804Z,19.70
2023-02-14T19:16:51.266Z,20.47
2023-02-14T19:19:24.116Z,20.70
2023-02-14T19:21:52.051Z,21.87
2023-02-14T19:24:19.929Z,23.30
2023-02-14T19:26:48.358Z,19.50
2023-02-14T19:29:18.299Z,21.43
2023-02-14T19:31:48.400Z,21.03
2023-02-14T19:34:29.319Z,22.97
2023-02-14T19:36:59.130Z,23.30
2023-02-14T19:39:29.648Z,22.93
2023-02-14T19:41:58.223Z,22.67
2023-02-14T19:44:26.804Z,23.30
2023-02-14T19:46:59.828Z,20.90
2023-02-14T19:49:33.217Z,21.90
2023-02-14T19:52:00.159Z,22.00
2023-02-14T19:54:29.969Z,22.03
2023-02-14T19:56:57.445Z,20.20
2023-02-14T19:59:28.643Z,18.33
2023-02-14T20:01:56.573Z,20.17
2023-02-14T20:04:27.832Z,19.93
2023-02-14T20:06:56.101Z,18.93
2023-02-14T20:09:23.738Z,18.57
2023-02-14T20:11:54.404Z,19.83
2023-02-14T20:14:25.092Z,18.17
2023-02-14T20:16:54.012Z,18.07
2023-02-14T20:19:23.442Z,17.97
2023-02-14T20:21:51.230Z,20.23
2023-02-14T20:24:20.547Z,18.17
2023-02-14T20:26:48.190Z,17.80
2023-02-14T20:29:16.280Z,17.57
2023-02-14T20:31:45.563Z,17.67
2023-02-14T20:34:13.200Z,17.23
2023-02-14T20:36:41.233Z,17.83
2023-02-14T20:39:09.721Z,16.23
2023-02-14T20:41:36.429Z,17.60
2023-02-14T20:44:10.687Z,16.60
2023-02-14T20:46:37.659Z,17.57
2023-02-14T20:49:05.747Z,18.90
2023-02-14T20:51:34.971Z,18.33
2023-02-14T20:54:04.004Z,17.67
2023-02-14T20:56:31.129Z,17.80
2023-02-14T20:59:00.681Z,17.93
2023-02-14T21:01:27.950Z,18.13
2023-02-14T21:03:55.499Z,18.07
2023-02-14T21:06:28.157Z,17.73
2023-02-14T21:08:55.440Z,17.90
2023-02-14T21:11:24.315Z,18.13
2023-02-14T21:13:57.583Z,18.37
2023-02-14T21:16:25.850Z,17.23
2023-02-14T21:18:59.329Z,16.23
2023-02-14T21:21:26.213Z,15.67
2023-02-14T21:23:53.855Z,16.77
2023-02-14T21:26:21.401Z,16.50
2023-02-14T21:28:49.318Z,15.80
2023-02-14T21:31:21.241Z,16.97
2023-02-14T21:33:57.487Z,15.90
2023-02-14T21:36:26.561Z,16.20
2023-02-14T21:38:58.884Z,15.60
2023-02-14T21:41:29.794Z,16.97
2023-02-14T21:43:57.935Z,17.30
2023-02-14T21:46:31.518Z,18.17
2023-02-14T21:49:22.683Z,17.00
2023-02-14T21:51:49.241Z,18.30
2023-02-14T21:54:16.793Z,18.33
2023-02-14T21:56:43.938Z,16.93
2023-02-14T21:59:11.101Z,17.10
2023-02-14T22:01:39.579Z,17.73
2023-02-14T22:04:09.484Z,15.77
2023-02-14T22:06:38.371Z,16.17
2023-02-14T22:09:05.910Z,17.40
2023-02-14T22:11:35.379Z,17.57
2023-02-14T22:14:02.220Z,17.53
2023-02-14T22:16:29.164Z,17.43
2023-02-14T22:18:56.046Z,18.40
2023-02-14T22:21:25.785Z,18.53
2023-02-14T22:23:53.211Z,18.67
2023-02-14T22:26:29.054Z,17.10
2023-02-14T22:29:00.785Z,18.77
2023-02-14T22:31:33.162Z,17.60
2023-02-14T22:34:00.023Z,18.20
2023-02-14T22:36:26.912Z,16.93
2023-02-14T22:38:53.817Z,18.70
2023-02-14T22:41:23.924Z,17.43
2023-02-14T22:43:52.448Z,17.30
2023-02-14T22:46:23.478Z,18.90
2023-02-14T22:48:51.526Z,18.30
2023-02-14T22:51:21.654Z,18.27
2023-02-14T22:53:50.848Z,17.50
2023-02-14T22:56:26.268Z,18.10
2023-02-14T22:58:58.642Z,19.30
2023-02-14T23:01:26.007Z,19.80
2023-02-14T23:03:57.827Z,18.47
2023-02-14T23:06:26.946Z,19.47
2023-02-14T23:08:54.545Z,19.37
2023-02-14T23:11:24.643Z,18.73
2023-02-14T23:14:13.013Z,18.67
2023-02-14T23:16:58.815Z,18.30
2023-02-14T23:19:46.734Z,18.97
2023-02-14T23:22:17.128Z,18.73
2023-02-14T23:24:45.656Z,17.93
2023-02-14T23:27:12.273Z,19.13
2023-02-14T23:29:38.816Z,19.63
2023-02-14T23:32:06.624Z,19.67
2023-02-14T23:34:35.562Z,17.50
2023-02-14T23:37:02.394Z,19.13
2023-02-14T23:39:29.149Z,18.13
2023-02-14T23:41:56.109Z,18.17
2023-02-14T23:44:28.082Z,17.07
2023-02-14T23:46:58.864Z,18.17
2023-02-14T23:49:26.618Z,18.20
2023-02-14T23:51:55.826Z,18.40
2023-02-14T23:54:24.008Z,18.40
2023-02-14T23:56:52.494Z,17.80
2023-02-14T23:59:21.037Z,16.80
